createdAt,value
2019-02-02T00:01:20.415Z,93160.92
2019-02-02T00:04:08.737Z,93172.41
2019-02-02T00:06:58.575Z,93171.42
2019-02-02T00:09:47.952Z,93156.70
2019-02-02T00:12:36.894Z,93156.44
2019-02-02T00:15:24.783Z,93169.98
2019-02-02T00:18:13.184Z,93167.28
2019-02-02T00:21:01.428Z,93169.23
2019-02-02T00:23:50.122Z,93166.07
2019-02-02T00:26:38.625Z,93145.98
2019-02-02T00:29:26.722Z,93157.91
2019-02-02T00:32:15.537Z,93169.79
2019-02-02T00:35:04.406Z,93170.28
2019-02-02T00:37:52.672Z,93175.26
2019-02-02T00:40:41.247Z,93178.30
2019-02-02T00:43:30.263Z,93180.57
2019-02-02T00:46:19.070Z,93175.27
2019-02-02T00:49:08.489Z,93168.38
2019-02-02T00:51:56.829Z,93174.17
2019-02-02T00:54:45.708Z,93169.47
2019-02-02T00:57:34.396Z,93173.80
2019-02-02T01:00:22.843Z,93176.98
2019-02-02T01:03:11.123Z,93172.70
2019-02-02T01:06:00.378Z,93169.59
2019-02-02T01:08:48.821Z,93172.41
2019-02-02T01:11:37.174Z,93163.03
2019-02-02T01:14:27.030Z,93162.34
2019-02-02T01:17:15.622Z,93163.33
2019-02-02T01:20:05.138Z,93169.42
2019-02-02T01:22:54.016Z,93168.98
2019-02-02T01:25:43.283Z,93162.79
2019-02-02T01:28:31.933Z,93170.08
2019-02-02T01:31:21.283Z,93169.25
2019-02-02T01:34:09.622Z,93172.89
2019-02-02T01:36:57.869Z,93171.27
2019-02-02T01:39:46.473Z,93174.24
2019-02-02T01:42:35.655Z,93171.01
2019-02-02T01:45:25.432Z,93162.47
2019-02-02T01:48:14.697Z,93163.56
2019-02-02T01:51:03.593Z,93150.88
2019-02-02T01:53:52.202Z,93142.78
2019-02-02T01:56:40.780Z,93138.38
2019-02-02T01:59:29.458Z,93141.87
2019-02-02T02:02:18.432Z,93143.95
2019-02-02T02:05:08.053Z,93139.54
2019-02-02T02:07:57.659Z,93138.56
2019-02-02T02:10:47.046Z,93130.80
2019-02-02T02:13:35.584Z,93146.73
2019-02-02T02:16:24.451Z,93147.11
2019-02-02T02:19:13.742Z,93155.81
2019-02-02T02:22:02.495Z,93151.55
2019-02-02T02:24:53.508Z,93147.67
2019-02-02T02:27:42.075Z,93145.30
2019-02-02T02:30:31.120Z,93132.88
2019-02-02T02:33:20.531Z,93129.64
2019-02-02T02:36:09.483Z,93137.66
2019-02-02T02:38:58.150Z,93140.48
2019-02-02T02:41:46.469Z,93141.69
2019-02-02T02:44:35.161Z,93142.48
2019-02-02T02:47:23.777Z,93124.98
2019-02-02T02:50:13.994Z,93121.74
2019-02-02T02:53:02.838Z,93135.10
2019-02-02T02:55:51.724Z,93135.59
2019-02-02T02:58:41.916Z,93138.00
2019-02-02T03:01:30.337Z,93154.30
2019-02-02T03:04:19.398Z,93156.19
2019-02-02T03:07:08.126Z,93162.05
2019-02-02T03:09:56.810Z,93154.00
2019-02-02T03:12:45.299Z,93159.19
2019-02-02T03:15:34.013Z,93151.73
2019-02-02T03:18:24.034Z,93135.52
2019-02-02T03:21:12.249Z,93135.52
2019-02-02T03:24:00.079Z,93151.47
2019-02-02T03:26:48.589Z,93157.16
2019-02-02T03:29:37.426Z,93166.16
2019-02-02T03:32:26.105Z,93156.56
2019-02-02T03:35:15.822Z,93156.56
2019-02-02T03:38:04.816Z,93165.14
2019-02-02T03:40:53.973Z,93165.67
2019-02-02T03:43:42.996Z,93177.19
2019-02-02T03:46:31.627Z,93181.52
2019-02-02T03:49:19.496Z,93176.12
2019-02-02T03:52:08.005Z,93177.22
2019-02-02T03:54:56.622Z,93179.32
2019-02-02T03:57:45.369Z,93178.48
2019-02-02T04:00:34.073Z,93175.44
2019-02-02T04:03:22.386Z,93178.75
2019-02-02T04:06:11.364Z,93184.56
2019-02-02T04:08:59.983Z,93191.88
2019-02-02T04:11:49.060Z,93193.87
2019-02-02T04:14:37.310Z,93199.55
2019-02-02T04:17:25.385Z,93209.20
2019-02-02T04:20:18.688Z,93201.17
2019-02-02T04:23:07.250Z,93203.39
2019-02-02T04:25:58.438Z,93209.64
2019-02-02T04:28:47.302Z,93208.03
2019-02-02T04:31:35.963Z,93210.28
2019-02-02T04:34:24.759Z,93187.47
2019-02-02T04:37:14.057Z,93200.94
2019-02-02T04:40:03.105Z,93197.13
2019-02-02T04:42:51.663Z,93197.13
2019-02-02T04:45:39.756Z,93194.91
2019-02-02T04:48:32.409Z,93198.56
2019-02-02T04:51:19.382Z,93210.27
2019-02-02T04:54:08.110Z,93218.61
2019-02-02T04:56:56.327Z,93197.71
2019-02-02T04:59:44.699Z,93197.71
2019-02-02T05:02:33.652Z,93206.03
2019-02-02T05:05:22.006Z,93206.03
2019-02-02T05:08:10.967Z,93215.78
2019-02-02T05:10:59.464Z,93216.77
2019-02-02T05:13:48.553Z,93209.80
2019-02-02T05:16:37.310Z,93239.94
2019-02-02T05:19:26.672Z,93228.83
2019-02-02T05:22:15.218Z,93224.39
2019-02-02T05:25:05.035Z,93228.54
2019-02-02T05:27:54.043Z,93237.30
2019-02-02T05:30:42.453Z,93232.08
2019-02-02T05:33:32.117Z,93232.42
2019-02-02T05:36:20.491Z,93222.44
2019-02-02T05:39:09.953Z,93221.28
2019-02-02T05:41:58.561Z,93220.48
2019-02-02T05:44:47.046Z,93230.18
2019-02-02T05:47:35.753Z,93235.60
2019-02-02T05:50:23.878Z,93244.66
2019-02-02T05:53:13.276Z,93244.66
2019-02-02T05:56:01.913Z,93252.83
2019-02-02T05:58:50.755Z,93267.78
2019-02-02T06:01:39.085Z,93285.70
2019-02-02T06:04:26.986Z,93285.70
2019-02-02T06:07:16.166Z,93285.88
2019-02-02T06:10:04.493Z,93288.46
2019-02-02T06:12:52.824Z,93297.55
2019-02-02T06:15:41.686Z,93311.19
2019-02-02T06:18:30.598Z,93309.81
2019-02-02T06:21:18.963Z,93326.45
2019-02-02T06:24:07.601Z,93321.86
2019-02-02T06:26:56.971Z,93324.38
2019-02-02T06:29:45.846Z,93319.20
2019-02-02T06:32:34.014Z,93334.08
2019-02-02T06:35:22.738Z,93330.97
2019-02-02T06:38:11.129Z,93334.88
2019-02-02T06:41:00.284Z,93345.86
2019-02-02T06:43:49.337Z,93349.26
2019-02-02T06:46:43.753Z,93352.52
2019-02-02T06:49:28.038Z,93352.52
2019-02-02T06:52:17.067Z,93371.11
2019-02-02T06:55:06.413Z,93364.33
2019-02-02T06:57:55.885Z,93364.33
2019-02-02T07:00:44.607Z,93360.78
2019-02-02T07:03:33.401Z,93360.78
2019-02-02T07:06:23.348Z,93368.58
2019-02-02T07:09:12.046Z,93380.80
2019-02-02T07:12:01.026Z,93383.47
2019-02-02T07:14:50.104Z,93392.00
2019-02-02T07:17:39.247Z,93393.16
2019-02-02T07:20:28.849Z,93399.69
2019-02-02T07:23:17.092Z,93399.69
2019-02-02T07:26:05.895Z,93397.95
2019-02-02T07:28:55.127Z,93397.95
2019-02-02T07:31:44.531Z,93399.24
2019-02-02T07:34:33.486Z,93405.78
2019-02-02T07:37:22.129Z,93405.78
2019-02-02T07:40:12.321Z,93418.16
2019-02-02T07:43:00.664Z,93418.16
2019-02-02T07:45:49.814Z,93420.62
2019-02-02T07:48:38.600Z,93423.45
2019-02-02T07:51:27.185Z,93424.93
2019-02-02T07:54:16.430Z,93422.55
2019-02-02T07:57:05.547Z,93412.82
2019-02-02T07:59:55.267Z,93412.78
2019-02-02T08:02:44.153Z,93395.92
2019-02-02T08:05:32.555Z,93388.36
2019-02-02T08:08:21.393Z,93403.76
2019-02-02T08:11:09.942Z,93436.39
2019-02-02T08:14:03.465Z,93450.91
2019-02-02T08:16:52.667Z,93461.06
2019-02-02T08:19:41.650Z,93470.95
2019-02-02T08:22:29.724Z,93474.23
2019-02-02T08:25:17.876Z,93483.50
2019-02-02T08:28:07.031Z,93501.30
2019-02-02T08:30:56.215Z,93518.28
2019-02-02T08:33:45.501Z,93520.61
2019-02-02T08:36:34.463Z,93537.95
2019-02-02T08:39:29.207Z,93540.36
2019-02-02T08:42:14.507Z,93538.62
2019-02-02T08:45:04.284Z,93534.58
2019-02-02T08:47:52.575Z,93533.12
2019-02-02T08:50:42.472Z,93519.55
2019-02-02T08:53:31.869Z,93517.63
2019-02-02T08:56:20.394Z,93502.62
2019-02-02T08:59:10.230Z,93497.05
2019-02-02T09:01:59.237Z,93503.11
2019-02-02T09:04:48.002Z,93508.03
2019-02-02T09:07:38.449Z,93500.92
2019-02-02T09:10:29.419Z,93500.87
2019-02-02T09:13:19.062Z,93522.54
2019-02-02T09:16:09.247Z,93529.73
2019-02-02T09:18:58.102Z,93522.20
2019-02-02T09:21:47.269Z,93531.71
2019-02-02T09:24:36.055Z,93539.98
2019-02-02T09:27:24.995Z,93545.87
2019-02-02T09:30:22.555Z,93553.98
2019-02-02T09:33:11.085Z,93580.05
2019-02-02T09:36:00.554Z,93581.51
2019-02-02T09:38:51.044Z,93584.23
2019-02-02T09:41:40.914Z,93599.68
2019-02-02T09:44:31.802Z,93601.71
2019-02-02T09:47:20.776Z,93587.98
2019-02-02T09:50:11.554Z,93597.44
2019-02-02T09:53:02.455Z,93606.37
2019-02-02T09:55:51.216Z,93609.97
2019-02-02T09:58:40.031Z,93616.97
2019-02-02T10:01:28.782Z,93626.02
2019-02-02T10:04:17.512Z,93632.00
2019-02-02T10:07:06.170Z,93624.78
2019-02-02T10:09:54.563Z,93627.09
2019-02-02T10:12:42.970Z,93637.10
2019-02-02T10:15:31.305Z,93636.34
2019-02-02T10:18:20.436Z,93633.23
2019-02-02T10:21:14.905Z,93631.29
2019-02-02T10:24:03.604Z,93632.11
2019-02-02T10:26:52.455Z,93640.11
2019-02-02T10:29:40.747Z,93643.42
2019-02-02T10:32:29.459Z,93661.16
2019-02-02T10:35:18.194Z,93642.94
2019-02-02T10:38:06.873Z,93643.25
2019-02-02T10:40:55.708Z,93649.28
2019-02-02T10:43:43.725Z,93644.50
2019-02-02T10:46:32.791Z,93640.93
2019-02-02T10:49:21.328Z,93652.57
2019-02-02T10:52:10.490Z,93665.48
2019-02-02T10:54:58.689Z,93670.69
2019-02-02T10:57:47.191Z,93671.23
2019-02-02T11:00:37.522Z,93672.84
2019-02-02T11:03:25.591Z,93682.70
2019-02-02T11:06:13.665Z,93683.41
2019-02-02T11:09:02.342Z,93678.01
2019-02-02T11:11:50.493Z,93667.70
2019-02-02T11:14:39.440Z,93660.43
2019-02-02T11:17:27.880Z,93662.23
2019-02-02T11:20:18.685Z,93662.27
2019-02-02T11:23:07.443Z,93658.45
2019-02-02T11:25:55.904Z,93653.11
2019-02-02T11:28:43.928Z,93672.81
2019-02-02T11:31:33.123Z,93688.83
2019-02-02T11:34:21.428Z,93672.38
2019-02-02T11:37:10.208Z,93664.72
2019-02-02T11:39:58.682Z,93671.97
2019-02-02T11:42:47.845Z,93676.19
2019-02-02T11:45:36.270Z,93680.03
2019-02-02T11:48:25.396Z,93690.36
2019-02-02T11:51:14.018Z,93687.28
2019-02-02T11:54:02.546Z,93703.66
2019-02-02T11:56:51.248Z,93707.09
2019-02-02T11:59:39.626Z,93708.31
2019-02-02T12:02:28.614Z,93710.78
2019-02-02T12:05:18.405Z,93707.78
2019-02-02T12:08:07.294Z,93712.56
2019-02-02T12:10:56.969Z,93714.76
2019-02-02T12:13:45.091Z,93726.65
2019-02-02T12:16:35.526Z,93724.02
2019-02-02T12:19:25.188Z,93729.30
2019-02-02T12:22:14.102Z,93735.56
2019-02-02T12:25:03.748Z,93730.70
2019-02-02T12:31:07.158Z,93748.69
2019-02-02T12:34:04.926Z,93735.59
2019-02-02T12:36:54.574Z,93728.80
2019-02-02T12:39:46.794Z,93731.45
2019-02-02T12:42:36.773Z,93725.70
2019-02-02T12:45:35.853Z,93732.16
2019-02-02T12:48:46.853Z,93748.73
2019-02-02T12:51:35.498Z,93738.42
2019-02-02T12:54:24.746Z,93725.78
2019-02-02T12:57:14.445Z,93731.12
2019-02-02T13:00:03.315Z,93740.16
2019-02-02T13:02:52.789Z,93727.98
2019-02-02T13:05:41.754Z,93719.72
2019-02-02T13:08:30.712Z,93731.76
2019-02-02T13:11:19.997Z,93737.73
2019-02-02T13:14:10.571Z,93729.53
2019-02-02T13:16:59.982Z,93728.53
2019-02-02T13:19:54.644Z,93736.14
2019-02-02T13:22:44.276Z,93750.31
2019-02-02T13:25:32.990Z,93747.11
2019-02-02T13:28:21.586Z,93745.97
2019-02-02T13:31:09.816Z,93742.44
2019-02-02T13:33:58.179Z,93735.69
2019-02-02T13:36:48.445Z,93728.44
2019-02-02T13:39:36.990Z,93719.56
2019-02-02T13:42:25.832Z,93713.65
2019-02-02T13:45:16.285Z,93723.30
2019-02-02T13:48:05.216Z,93722.78
2019-02-02T13:50:54.737Z,93720.30
2019-02-02T13:53:43.557Z,93723.23
2019-02-02T13:56:35.187Z,93724.07
2019-02-02T13:59:24.147Z,93719.95
2019-02-02T14:05:25.946Z,93719.94
2019-02-02T14:08:14.800Z,93724.67
2019-02-02T14:11:03.599Z,93728.66
2019-02-02T14:13:52.708Z,93725.48
2019-02-02T14:16:41.767Z,93741.41
2019-02-02T14:19:30.123Z,93743.02
2019-02-02T14:22:18.817Z,93746.62
2019-02-02T14:25:07.981Z,93748.41
2019-02-02T14:27:58.002Z,93750.47
2019-02-02T14:30:47.282Z,93753.84
2019-02-02T14:33:35.832Z,93749.98
2019-02-02T14:36:24.581Z,93749.44
2019-02-02T14:39:13.027Z,93751.78
2019-02-02T14:42:01.334Z,93751.17
2019-02-02T14:44:50.166Z,93754.76
2019-02-02T14:47:38.600Z,93748.17
2019-02-02T14:50:26.854Z,93752.92
2019-02-02T14:53:16.641Z,93755.64
2019-02-02T14:56:09.711Z,93759.55
2019-02-02T14:58:58.996Z,93764.57
2019-02-02T15:02:06.574Z,93773.75
2019-02-02T15:04:55.158Z,93780.28
2019-02-02T15:07:44.077Z,93781.84
2019-02-02T15:10:33.442Z,93777.88
2019-02-02T15:13:29.385Z,93780.68
2019-02-02T15:16:17.546Z,93787.30
2019-02-02T15:19:06.488Z,93801.05
2019-02-02T15:21:54.565Z,93796.17
2019-02-02T15:24:42.437Z,93797.42
2019-02-02T15:27:31.459Z,93795.06
2019-02-02T15:30:20.931Z,93805.41
2019-02-02T15:33:09.021Z,93797.20
2019-02-02T15:35:57.774Z,93799.06
2019-02-02T15:38:49.868Z,93802.94
2019-02-02T15:41:38.529Z,93799.89
2019-02-02T15:44:27.313Z,93803.73
2019-02-02T15:47:16.420Z,93810.73
2019-02-02T15:50:18.391Z,93808.16
2019-02-02T15:53:06.929Z,93809.02
2019-02-02T15:55:55.924Z,93807.91
2019-02-02T15:58:45.260Z,93810.14
2019-02-02T16:01:33.702Z,93807.66
2019-02-02T16:04:22.165Z,93817.11
2019-02-02T16:07:11.431Z,93818.09
2019-02-02T16:10:00.767Z,93821.80
2019-02-02T16:12:55.596Z,93829.81
2019-02-02T16:15:49.666Z,93837.87
2019-02-02T16:18:44.182Z,93830.86
2019-02-02T16:24:33.777Z,93846.06
2019-02-02T16:27:21.998Z,93842.93
2019-02-02T16:30:12.932Z,93850.13
2019-02-02T16:33:01.272Z,93862.27
2019-02-02T16:35:50.238Z,93875.44
2019-02-02T16:38:39.439Z,93890.45
2019-02-02T16:41:30.286Z,93890.33
2019-02-02T16:44:22.037Z,93889.27
2019-02-02T16:47:12.303Z,93899.56
2019-02-02T16:50:01.916Z,93907.28
2019-02-02T16:52:51.809Z,93910.71
2019-02-02T16:55:42.588Z,93915.44
2019-02-02T16:58:32.590Z,93923.13
2019-02-02T17:01:21.496Z,93918.17
2019-02-02T17:04:15.844Z,93924.12
2019-02-02T17:07:06.136Z,93929.41
2019-02-02T17:09:55.965Z,93927.45
2019-02-02T17:12:46.562Z,93925.79
2019-02-02T17:15:38.937Z,93929.95
2019-02-02T17:18:27.968Z,93933.20
2019-02-02T17:21:18.334Z,93951.64
2019-02-02T17:24:09.520Z,93952.63
2019-02-02T17:26:58.879Z,93958.27
2019-02-02T17:29:48.477Z,93952.06
2019-02-02T17:32:38.213Z,93949.73
2019-02-02T17:35:28.255Z,93945.09
2019-02-02T17:38:18.660Z,93942.02
2019-02-02T17:41:09.373Z,93934.84
2019-02-02T17:43:59.912Z,93941.77
2019-02-02T17:46:48.988Z,93942.14
2019-02-02T17:49:38.596Z,93939.08
2019-02-02T17:52:27.977Z,93942.56
2019-02-02T17:55:21.184Z,93950.34
2019-02-02T17:58:13.341Z,93942.63
2019-02-02T18:01:03.655Z,93952.59
2019-02-02T18:03:56.059Z,93970.11
2019-02-02T18:06:44.933Z,93979.48
2019-02-02T18:09:59.280Z,93983.89
2019-02-02T18:12:47.849Z,93982.27
2019-02-02T18:15:35.957Z,93992.74
2019-02-02T18:18:24.076Z,93999.08
2019-02-02T18:21:14.211Z,93990.33
2019-02-02T18:24:03.318Z,93991.64
2019-02-02T18:26:52.060Z,94014.77
2019-02-02T18:29:43.666Z,94020.88
2019-02-02T18:32:31.918Z,94023.03
2019-02-02T18:35:21.051Z,94026.95
2019-02-02T18:38:09.582Z,94029.95
2019-02-02T18:41:24.991Z,94025.61
2019-02-02T18:44:13.964Z,94014.30
2019-02-02T18:47:02.376Z,94014.15
2019-02-02T18:49:51.269Z,94010.78
2019-02-02T18:52:46.075Z,94018.62
2019-02-02T18:55:47.040Z,94025.72
2019-02-02T18:58:35.713Z,94038.40
2019-02-02T19:01:24.577Z,94032.58
2019-02-02T19:04:12.767Z,94026.95
2019-02-02T19:07:01.277Z,94031.97
2019-02-02T19:09:50.337Z,94038.58
2019-02-02T19:12:38.896Z,94036.68
2019-02-02T19:15:28.175Z,94044.34
2019-02-02T19:18:17.930Z,94049.13
2019-02-02T19:21:07.039Z,94040.79
2019-02-02T19:23:56.367Z,94043.55
2019-02-02T19:26:46.081Z,94040.05
2019-02-02T19:29:35.144Z,94032.42
2019-02-02T19:32:25.277Z,94026.17
2019-02-02T19:35:16.271Z,94035.30
2019-02-02T19:38:23.267Z,94033.70
2019-02-02T19:41:12.541Z,94030.20
2019-02-02T19:44:02.471Z,94031.69
2019-02-02T19:46:51.127Z,94039.34
2019-02-02T19:49:39.561Z,94038.72
2019-02-02T19:52:28.161Z,94056.23
2019-02-02T19:55:19.399Z,94057.52
2019-02-02T19:58:07.682Z,94055.92
2019-02-02T20:00:56.533Z,94060.40
2019-02-02T20:03:47.392Z,94067.93
2019-02-02T20:06:38.213Z,94079.45
2019-02-02T20:12:34.715Z,94105.94
2019-02-02T20:15:27.370Z,94118.18
2019-02-02T20:18:16.116Z,94132.45
2019-02-02T20:21:24.788Z,94143.47
2019-02-02T20:24:13.150Z,94147.61
2019-02-02T20:27:02.931Z,94153.06
2019-02-02T20:29:53.819Z,94154.41
2019-02-02T20:32:44.309Z,94161.84
2019-02-02T20:35:40.824Z,94164.45
2019-02-02T20:38:23.661Z,94170.52
2019-02-02T20:41:12.731Z,94165.50
2019-02-02T20:44:02.307Z,94164.66
2019-02-02T20:46:55.002Z,94174.35
2019-02-02T20:49:43.828Z,94167.55
2019-02-02T20:52:33.113Z,94167.89
2019-02-02T20:55:25.179Z,94178.30
2019-02-02T20:58:14.581Z,94176.75
2019-02-02T21:01:04.771Z,94176.75
2019-02-02T21:03:55.342Z,94179.70
2019-02-02T21:06:44.681Z,94178.69
2019-02-02T21:09:33.953Z,94180.14
2019-02-02T21:12:26.046Z,94184.20
2019-02-02T21:15:15.247Z,94186.91
2019-02-02T21:18:04.849Z,94187.41
2019-02-02T21:20:54.195Z,94186.08
2019-02-02T21:23:43.157Z,94193.65
2019-02-02T21:26:32.391Z,94187.85
2019-02-02T21:29:21.573Z,94182.89
2019-02-02T21:32:10.982Z,94178.59
2019-02-02T21:34:59.881Z,94179.38
2019-02-02T21:37:51.858Z,94176.26
2019-02-02T21:40:41.569Z,94169.84
2019-02-02T21:43:30.056Z,94164.25
2019-02-02T21:46:19.152Z,94158.69
2019-02-02T21:49:07.874Z,94161.57
2019-02-02T21:51:57.691Z,94165.19
2019-02-02T21:54:47.778Z,94156.17
2019-02-02T21:57:38.053Z,94165.50
2019-02-02T22:00:35.861Z,94158.77
2019-02-02T22:03:25.263Z,94171.58
2019-02-02T22:06:15.556Z,94167.23
2019-02-02T22:09:06.509Z,94164.25
2019-02-02T22:11:55.732Z,94165.02
2019-02-02T22:14:43.992Z,94165.64
2019-02-02T22:17:32.855Z,94166.44
2019-02-02T22:20:21.983Z,94171.23
2019-02-02T22:23:10.924Z,94169.56
2019-02-02T22:26:00.237Z,94173.11
2019-02-02T22:28:49.403Z,94171.58
2019-02-02T22:31:38.715Z,94169.32
2019-02-02T22:34:27.298Z,94163.14
2019-02-02T22:37:15.386Z,94154.33
2019-02-02T22:40:05.811Z,94159.48
2019-02-02T22:42:55.041Z,94161.41
2019-02-02T22:45:43.893Z,94161.37
2019-02-02T22:48:33.106Z,94156.09
2019-02-02T22:51:23.986Z,94146.48
2019-02-02T22:54:13.447Z,94139.06
2019-02-02T22:57:02.067Z,94147.36
2019-02-02T22:59:50.790Z,94158.11
2019-02-02T23:02:38.977Z,94170.78
2019-02-02T23:05:50.440Z,94179.77
2019-02-02T23:09:13.209Z,94169.87
2019-02-02T23:12:29.362Z,94184.13
2019-02-02T23:16:04.903Z,94175.03
2019-02-02T23:18:54.685Z,94181.02
2019-02-02T23:21:44.052Z,94203.22
2019-02-02T23:24:33.155Z,94202.23
2019-02-02T23:27:22.528Z,94198.43
2019-02-02T23:30:12.217Z,94207.09
2019-02-02T23:33:01.421Z,94198.77
2019-02-02T23:35:50.399Z,94198.77
2019-02-02T23:38:39.203Z,94195.41
2019-02-02T23:41:28.450Z,94172.77
2019-02-02T23:44:17.653Z,94172.77
2019-02-02T23:47:18.277Z,94196.16
2019-02-02T23:50:07.292Z,94198.72
2019-02-02T23:52:57.590Z,94176.78
2019-02-02T23:55:46.881Z,94176.78
2019-02-02T23:59:14.394Z,94192.66
